sensor_id;sensor_type;location;lat;lon;timestamp;pressure;altitude;pressure_sealevel;temperature;humidity
54816;BME280;40715;55.752;37.884;2023-03-25T00:00:13;97837.69;;;30.87;31.16
54816;BME280;40715;55.752;37.884;2023-03-25T00:02:51;97830.56;;;30.92;31.10
54816;BME280;40715;55.752;37.884;2023-03-25T00:05:20;97838.72;;;30.92;31.02
54816;BME280;40715;55.752;37.884;2023-03-25T00:07:50;97833.09;;;30.80;31.04
54816;BME280;40715;55.752;37.884;2023-03-25T00:10:17;97842.09;;;30.88;30.85
54816;BME280;40715;55.752;37.884;2023-03-25T00:12:44;97838.09;;;30.84;31.13
54816;BME280;40715;55.752;37.884;2023-03-25T00:15:12;97840.81;;;30.84;30.78
54816;BME280;40715;55.752;37.884;2023-03-25T00:17:39;97839.78;;;30.85;31.07
54816;BME280;40715;55.752;37.884;2023-03-25T00:20:07;97840.63;;;30.85;30.88
54816;BME280;40715;55.752;37.884;2023-03-25T00:22:36;97842.28;;;30.86;30.84
54816;BME280;40715;55.752;37.884;2023-03-25T00:25:08;97848.56;;;30.87;31.24
54816;BME280;40715;55.752;37.884;2023-03-25T00:27:37;97840.41;;;30.87;30.82
54816;BME280;40715;55.752;37.884;2023-03-25T00:30:05;97838.75;;;30.86;31.13
54816;BME280;40715;55.752;37.884;2023-03-25T00:32:32;97835.19;;;30.85;31.16
54816;BME280;40715;55.752;37.884;2023-03-25T00:34:59;97823.47;;;30.85;31.10
54816;BME280;40715;55.752;37.884;2023-03-25T00:37:27;97814.47;;;30.84;31.06
54816;BME280;40715;55.752;37.884;2023-03-25T00:39:54;97812.38;;;30.86;31.07
54816;BME280;40715;55.752;37.884;2023-03-25T00:42:20;97800.69;;;30.86;30.67
54816;BME280;40715;55.752;37.884;2023-03-25T00:44:52;97800.88;;;30.84;30.72
54816;BME280;40715;55.752;37.884;2023-03-25T00:47:19;97795.66;;;30.83;30.71
54816;BME280;40715;55.752;37.884;2023-03-25T00:49:48;97798.16;;;30.84;30.55
54816;BME280;40715;55.752;37.884;2023-03-25T00:52:15;97806.31;;;30.84;30.70
54816;BME280;40715;55.752;37.884;2023-03-25T00:54:44;97803.41;;;30.86;30.66
54816;BME280;40715;55.752;37.884;2023-03-25T00:57:11;97795.44;;;30.84;30.54
54816;BME280;40715;55.752;37.884;2023-03-25T00:59:38;97789.81;;;30.86;30.60
54816;BME280;40715;55.752;37.884;2023-03-25T01:02:05;97789.81;;;30.86;30.87
54816;BME280;40715;55.752;37.884;2023-03-25T01:04:33;97785.63;;;30.83;30.91
54816;BME280;40715;55.752;37.884;2023-03-25T01:07:00;97782.69;;;30.85;30.72
54816;BME280;40715;55.752;37.884;2023-03-25T01:09:29;97779.34;;;30.83;30.64
54816;BME280;40715;55.752;37.884;2023-03-25T01:11:56;97781.00;;;30.84;30.59
54816;BME280;40715;55.752;37.884;2023-03-25T01:14:24;97770.97;;;30.84;30.68
54816;BME280;40715;55.752;37.884;2023-03-25T01:16:53;97772.84;;;30.84;30.86
54816;BME280;40715;55.752;37.884;2023-03-25T01:19:20;97774.75;;;30.83;30.39
54816;BME280;40715;55.752;37.884;2023-03-25T01:21:47;97763.66;;;30.85;30.34
54816;BME280;40715;55.752;37.884;2023-03-25T01:24:15;97772.84;;;30.84;30.29
54816;BME280;40715;55.752;37.884;2023-03-25T01:26:42;97765.75;;;30.83;30.19
54816;BME280;40715;55.752;37.884;2023-03-25T01:29:10;97759.47;;;30.82;30.27
54816;BME280;40715;55.752;37.884;2023-03-25T01:31:38;97743.78;;;30.84;30.39
54816;BME280;40715;55.752;37.884;2023-03-25T01:34:05;97739.19;;;30.85;30.29
54816;BME280;40715;55.752;37.884;2023-03-25T01:36:33;97748.41;;;30.84;30.28
54816;BME280;40715;55.752;37.884;2023-03-25T01:39:02;97741.06;;;30.84;30.17
54816;BME280;40715;55.752;37.884;2023-03-25T01:41:32;97737.53;;;30.84;30.38
54816;BME280;40715;55.752;37.884;2023-03-25T01:46:51;97756.97;;;30.87;30.26
54816;BME280;40715;55.752;37.884;2023-03-25T01:49:25;97753.00;;;30.83;30.44
54816;BME280;40715;55.752;37.884;2023-03-25T01:51:59;97749.44;;;30.83;30.41
54816;BME280;40715;55.752;37.884;2023-03-25T01:54:28;97741.28;;;30.83;30.05
54816;BME280;40715;55.752;37.884;2023-03-25T01:56:56;97723.31;;;30.81;30.40
54816;BME280;40715;55.752;37.884;2023-03-25T01:59:25;97722.25;;;30.83;30.05
54816;BME280;40715;55.752;37.884;2023-03-25T02:01:55;97719.53;;;30.83;30.33
54816;BME280;40715;55.752;37.884;2023-03-25T02:04:32;97710.75;;;30.87;30.16
54816;BME280;40715;55.752;37.884;2023-03-25T02:07:05;97707.19;;;30.87;29.75
54816;BME280;40715;55.752;37.884;2023-03-25T02:09:36;97717.66;;;30.83;30.14
54816;BME280;40715;55.752;37.884;2023-03-25T02:12:04;97697.78;;;30.83;29.99
54816;BME280;40715;55.752;37.884;2023-03-25T02:14:33;97698.63;;;30.83;29.92
54816;BME280;40715;55.752;37.884;2023-03-25T02:17:31;97689.00;;;30.87;30.01
54816;BME280;40715;55.752;37.884;2023-03-25T02:39:52;97683.97;;;30.84;29.68
54816;BME280;40715;55.752;37.884;2023-03-25T02:44:59;97681.28;;;30.77;29.87
54816;BME280;40715;55.752;37.884;2023-03-25T02:47:33;97675.63;;;30.79;29.66
54816;BME280;40715;55.752;37.884;2023-03-25T02:50:08;97657.66;;;30.78;29.70
54816;BME280;40715;55.752;37.884;2023-03-25T02:52:41;97659.94;;;30.81;29.90
54816;BME280;40715;55.752;37.884;2023-03-25T02:55:11;97654.94;;;30.78;29.91
54816;BME280;40715;55.752;37.884;2023-03-25T02:57:43;97649.50;;;30.78;29.56
54816;BME280;40715;55.752;37.884;2023-03-25T03:00:13;97639.66;;;30.77;29.83
54816;BME280;40715;55.752;37.884;2023-03-25T03:02:45;97635.72;;;30.73;29.60
54816;BME280;40715;55.752;37.884;2023-03-25T03:05:38;97641.72;;;30.95;29.52
54816;BME280;40715;55.752;37.884;2023-03-25T03:19:59;97621.06;;;30.87;29.71
54816;BME280;40715;55.752;37.884;2023-03-25T03:27:55;97599.53;;;30.72;29.78
54816;BME280;40715;55.752;37.884;2023-03-25T03:30:31;97590.94;;;30.75;29.72
54816;BME280;40715;55.752;37.884;2023-03-25T03:36:27;97587.19;;;30.76;29.61
54816;BME280;40715;55.752;37.884;2023-03-25T03:39:16;97586.16;;;30.77;29.22
54816;BME280;40715;55.752;37.884;2023-03-25T03:41:49;97581.16;;;30.74;29.36
54816;BME280;40715;55.752;37.884;2023-03-25T03:44:21;97575.06;;;30.72;29.38
54816;BME280;40715;55.752;37.884;2023-03-25T03:47:00;97563.38;;;30.72;29.44
54816;BME280;40715;55.752;37.884;2023-03-25T03:49:34;97565.88;;;30.80;29.29
54816;BME280;40715;55.752;37.884;2023-03-25T03:52:19;97570.41;;;30.93;29.35
54816;BME280;40715;55.752;37.884;2023-03-25T03:54:52;97555.66;;;31.59;28.36
54816;BME280;40715;55.752;37.884;2023-03-25T03:57:29;97556.38;;;30.96;28.88
54816;BME280;40715;55.752;37.884;2023-03-25T04:00:06;97552.00;;;30.88;29.35
54816;BME280;40715;55.752;37.884;2023-03-25T04:02:40;97551.63;;;30.85;29.05
54816;BME280;40715;55.752;37.884;2023-03-25T04:05:10;97544.28;;;30.85;29.21
54816;BME280;40715;55.752;37.884;2023-03-25T04:07:42;97542.44;;;30.86;29.33
54816;BME280;40715;55.752;37.884;2023-03-25T04:10:16;97535.28;;;30.91;29.21
54816;BME280;40715;55.752;37.884;2023-03-25T04:12:49;97527.97;;;30.92;29.13
54816;BME280;40715;55.752;37.884;2023-03-25T04:15:17;97533.78;;;30.95;28.82
54816;BME280;40715;55.752;37.884;2023-03-25T04:17:44;97534.63;;;30.96;29.16
54816;BME280;40715;55.752;37.884;2023-03-25T04:20:15;97541.94;;;30.95;28.97
54816;BME280;40715;55.752;37.884;2023-03-25T04:22:50;97535.03;;;30.99;28.69
54816;BME280;40715;55.752;37.884;2023-03-25T04:25:18;97531.69;;;30.97;29.04
54816;BME280;40715;55.752;37.884;2023-03-25T04:27:47;97527.09;;;30.98;29.02
54816;BME280;40715;55.752;37.884;2023-03-25T04:30:15;97519.78;;;30.98;28.88
54816;BME280;40715;55.752;37.884;2023-03-25T04:32:44;97529.41;;;31.01;28.77
54816;BME280;40715;55.752;37.884;2023-03-25T04:35:13;97517.47;;;31.02;28.81
54816;BME280;40715;55.752;37.884;2023-03-25T04:37:40;97508.28;;;31.03;28.44
54816;BME280;40715;55.752;37.884;2023-03-25T04:40:12;97508.66;;;31.07;28.62
54816;BME280;40715;55.752;37.884;2023-03-25T04:42:48;97508.44;;;31.08;28.42
54816;BME280;40715;55.752;37.884;2023-03-25T04:45:15;97498.84;;;31.06;28.76
54816;BME280;40715;55.752;37.884;2023-03-25T04:47:44;97493.41;;;31.06;28.61
54816;BME280;40715;55.752;37.884;2023-03-25T04:52:46;97485.63;;;31.09;28.21
54816;BME280;40715;55.752;37.884;2023-03-25T04:55:13;97473.09;;;31.08;28.52
54816;BME280;40715;55.752;37.884;2023-03-25T04:57:47;97475.81;;;31.08;28.35
54816;BME280;40715;55.752;37.884;2023-03-25T05:00:16;97477.72;;;31.08;28.28
54816;BME280;40715;55.752;37.884;2023-03-25T05:02:49;97459.31;;;31.10;28.39
54816;BME280;40715;55.752;37.884;2023-03-25T05:05:19;97465.78;;;31.09;28.41
54816;BME280;40715;55.752;37.884;2023-03-25T05:07:48;97461.16;;;31.09;28.28
54816;BME280;40715;55.752;37.884;2023-03-25T05:10:16;97445.69;;;31.10;28.34
54816;BME280;40715;55.752;37.884;2023-03-25T05:12:44;97449.69;;;31.07;28.39
54816;BME280;40715;55.752;37.884;2023-03-25T05:15:12;97456.16;;;31.06;28.59
54816;BME280;40715;55.752;37.884;2023-03-25T05:17:39;97448.84;;;31.07;28.28
54816;BME280;40715;55.752;37.884;2023-03-25T05:20:07;97440.06;;;31.05;28.34
54816;BME280;40715;55.752;37.884;2023-03-25T05:22:34;97441.75;;;31.06;28.21
54816;BME280;40715;55.752;37.884;2023-03-25T05:25:07;97433.81;;;31.04;28.46
54816;BME280;40715;55.752;37.884;2023-03-25T05:27:35;97437.34;;;31.05;28.43
54816;BME280;40715;55.752;37.884;2023-03-25T05:30:04;97450.13;;;31.04;28.52
54816;BME280;40715;55.752;37.884;2023-03-25T05:32:31;97452.84;;;31.04;28.50
54816;BME280;40715;55.752;37.884;2023-03-25T05:35:02;97449.50;;;31.02;28.92
54816;BME280;40715;55.752;37.884;2023-03-25T05:37:30;97466.84;;;31.01;28.86
54816;BME280;40715;55.752;37.884;2023-03-25T05:39:57;97461.41;;;31.01;28.60
54816;BME280;40715;55.752;37.884;2023-03-25T05:42:24;97465.19;;;31.00;28.63
54816;BME280;40715;55.752;37.884;2023-03-25T05:44:52;97462.06;;;30.96;29.08
54816;BME280;40715;55.752;37.884;2023-03-25T05:47:24;97461.00;;;30.97;29.24
54816;BME280;40715;55.752;37.884;2023-03-25T05:49:51;97458.28;;;30.97;28.71
54816;BME280;40715;55.752;37.884;2023-03-25T05:52:19;97453.66;;;30.98;28.71
54816;BME280;40715;55.752;37.884;2023-03-25T05:54:50;97446.59;;;30.97;28.92
54816;BME280;40715;55.752;37.884;2023-03-25T05:57:17;97444.91;;;30.96;28.77
54816;BME280;40715;55.752;37.884;2023-03-25T05:59:45;97438.63;;;30.95;28.67
54816;BME280;40715;55.752;37.884;2023-03-25T06:02:15;97429.88;;;30.93;29.29
54816;BME280;40715;55.752;37.884;2023-03-25T06:04:43;97438.63;;;30.95;28.77
54816;BME280;40715;55.752;37.884;2023-03-25T06:07:10;97420.66;;;30.94;28.92
54816;BME280;40715;55.752;37.884;2023-03-25T06:09:46;97424.22;;;30.95;28.85
54816;BME280;40715;55.752;37.884;2023-03-25T06:12:18;97420.44;;;30.96;29.03
54816;BME280;40715;55.752;37.884;2023-03-25T06:14:46;97433.19;;;30.95;29.12
54816;BME280;40715;55.752;37.884;2023-03-25T06:17:15;97431.53;;;30.94;28.91
54816;BME280;40715;55.752;37.884;2023-03-25T06:19:42;97435.72;;;30.97;28.82
54816;BME280;40715;55.752;37.884;2023-03-25T06:22:10;97445.13;;;30.94;28.88
54816;BME280;40715;55.752;37.884;2023-03-25T06:24:38;97441.97;;;30.97;28.85
54816;BME280;40715;55.752;37.884;2023-03-25T06:27:11;97422.31;;;30.95;29.21
54816;BME280;40715;55.752;37.884;2023-03-25T06:29:38;97417.50;;;30.97;29.01
54816;BME280;40715;55.752;37.884;2023-03-25T06:32:10;97417.72;;;30.96;28.84
54816;BME280;40715;55.752;37.884;2023-03-25T06:34:38;97416.69;;;30.97;29.24
54816;BME280;40715;55.752;37.884;2023-03-25T06:37:09;97408.53;;;30.97;29.20
54816;BME280;40715;55.752;37.884;2023-03-25T06:39:36;97418.56;;;30.96;29.15
54816;BME280;40715;55.752;37.884;2023-03-25T06:42:04;97420.22;;;30.97;29.27
54816;BME280;40715;55.752;37.884;2023-03-25T06:44:32;97388.84;;;31.02;29.00
54816;BME280;40715;55.752;37.884;2023-03-25T06:46:59;97392.63;;;31.01;29.41
54816;BME280;40715;55.752;37.884;2023-03-25T06:49:30;97403.09;;;30.97;29.35
54816;BME280;40715;55.752;37.884;2023-03-25T06:51:57;97402.69;;;30.93;29.72
54816;BME280;40715;55.752;37.884;2023-03-25T06:54:24;97396.41;;;30.93;30.19
54816;BME280;40715;55.752;37.884;2023-03-25T06:56:51;97404.56;;;30.93;30.15
54816;BME280;40715;55.752;37.884;2023-03-25T06:59:18;97414.16;;;30.95;29.84
54816;BME280;40715;55.752;37.884;2023-03-25T07:01:45;97415.38;;;30.99;30.08
54816;BME280;40715;55.752;37.884;2023-03-25T07:04:12;97408.94;;;31.01;30.04
54816;BME280;40715;55.752;37.884;2023-03-25T07:06:39;97394.66;;;31.05;29.92
54816;BME280;40715;55.752;37.884;2023-03-25T07:09:07;97388.78;;;31.08;29.72
54816;BME280;40715;55.752;37.884;2023-03-25T07:11:34;97398.16;;;31.12;29.76
54816;BME280;40715;55.752;37.884;2023-03-25T07:14:01;97399.63;;;31.15;29.79
54816;BME280;40715;55.752;37.884;2023-03-25T07:16:28;97390.41;;;31.16;29.79
54816;BME280;40715;55.752;37.884;2023-03-25T07:18:56;97398.97;;;31.20;29.60
54816;BME280;40715;55.752;37.884;2023-03-25T07:21:25;97397.09;;;31.20;29.39
54816;BME280;40715;55.752;37.884;2023-03-25T07:23:53;97390.38;;;31.23;29.18
54816;BME280;40715;55.752;37.884;2023-03-25T07:26:21;97397.88;;;31.27;29.44
54816;BME280;40715;55.752;37.884;2023-03-25T07:28:48;97397.63;;;31.29;29.07
54816;BME280;40715;55.752;37.884;2023-03-25T07:31:16;97397.41;;;31.30;28.86
54816;BME280;40715;55.752;37.884;2023-03-25T07:33:45;97390.72;;;31.33;28.84
54816;BME280;40715;55.752;37.884;2023-03-25T07:36:12;97392.38;;;31.34;29.04
54816;BME280;40715;55.752;37.884;2023-03-25T07:38:40;97392.97;;;31.36;29.01
54816;BME280;40715;55.752;37.884;2023-03-25T07:41:11;97393.78;;;31.37;28.62
54816;BME280;40715;55.752;37.884;2023-03-25T07:43:39;97392.53;;;31.39;28.71
54816;BME280;40715;55.752;37.884;2023-03-25T07:46:06;97394.78;;;31.42;28.73
54816;BME280;40715;55.752;37.884;2023-03-25T07:48:33;97386.84;;;31.41;28.27
54816;BME280;40715;55.752;37.884;2023-03-25T07:51:00;97384.91;;;31.48;28.55
54816;BME280;40715;55.752;37.884;2023-03-25T07:53:27;97388.72;;;31.47;28.21
54816;BME280;40715;55.752;37.884;2023-03-25T07:55:54;97378.03;;;31.45;28.10
54816;BME280;40715;55.752;37.884;2023-03-25T07:58:22;97389.91;;;31.51;28.43
54816;BME280;40715;55.752;37.884;2023-03-25T08:00:49;97391.81;;;31.50;28.24
54816;BME280;40715;55.752;37.884;2023-03-25T08:03:16;97396.78;;;31.54;28.74
54816;BME280;40715;55.752;37.884;2023-03-25T08:05:45;97395.50;;;31.56;29.16
54816;BME280;40715;55.752;37.884;2023-03-25T08:08:13;97399.72;;;31.59;29.26
54816;BME280;40715;55.752;37.884;2023-03-25T08:10:42;97390.91;;;31.57;29.00
54816;BME280;40715;55.752;37.884;2023-03-25T08:13:10;97379.00;;;31.58;29.68
54816;BME280;40715;55.752;37.884;2023-03-25T08:15:38;97392.53;;;31.64;29.44
54816;BME280;40715;55.752;37.884;2023-03-25T08:18:06;97383.34;;;31.65;29.48
54816;BME280;40715;55.752;37.884;2023-03-25T08:20:33;97391.28;;;31.67;29.48
54816;BME280;40715;55.752;37.884;2023-03-25T08:23:00;97394.81;;;31.67;30.09
54816;BME280;40715;55.752;37.884;2023-03-25T08:25:29;97408.19;;;31.69;30.15
54816;BME280;40715;55.752;37.884;2023-03-25T08:27:57;97413.19;;;31.72;29.75
54816;BME280;40715;55.752;37.884;2023-03-25T08:30:24;97423.25;;;31.72;30.16
54816;BME280;40715;55.752;37.884;2023-03-25T08:32:51;97425.16;;;31.71;30.25
54816;BME280;40715;55.752;37.884;2023-03-25T08:35:22;97431.19;;;31.73;29.88
54816;BME280;40715;55.752;37.884;2023-03-25T08:37:50;97435.38;;;31.76;30.13
54816;BME280;40715;55.752;37.884;2023-03-25T08:40:17;97437.03;;;31.77;30.10
54816;BME280;40715;55.752;37.884;2023-03-25T08:42:44;97434.09;;;31.78;30.12
54816;BME280;40715;55.752;37.884;2023-03-25T08:45:12;97433.47;;;31.76;29.78
54816;BME280;40715;55.752;37.884;2023-03-25T08:47:42;97419.25;;;31.74;29.94
54816;BME280;40715;55.752;37.884;2023-03-25T08:50:09;97426.50;;;31.80;29.84
54816;BME280;40715;55.752;37.884;2023-03-25T08:52:37;97435.50;;;31.81;29.58
54816;BME280;40715;55.752;37.884;2023-03-25T08:55:04;97432.19;;;31.79;29.91
54816;BME280;40715;55.752;37.884;2023-03-25T08:57:35;97426.06;;;31.83;29.90
54816;BME280;40715;55.752;37.884;2023-03-25T09:00:05;97427.13;;;31.82;29.59
54816;BME280;40715;55.752;37.884;2023-03-25T09:02:38;97429.25;;;31.80;29.46
54816;BME280;40715;55.752;37.884;2023-03-25T09:05:08;97434.22;;;31.83;29.51
54816;BME280;40715;55.752;37.884;2023-03-25T09:07:37;97444.06;;;31.84;29.75
54816;BME280;40715;55.752;37.884;2023-03-25T09:10:05;97442.41;;;31.83;29.25
54816;BME280;40715;55.752;37.884;2023-03-25T09:12:33;97435.91;;;31.84;29.69
54816;BME280;40715;55.752;37.884;2023-03-25T09:15:00;97442.16;;;31.85;29.51
54816;BME280;40715;55.752;37.884;2023-03-25T09:17:28;97447.38;;;31.87;29.64
54816;BME280;40715;55.752;37.884;2023-03-25T09:19:55;97433.19;;;31.84;29.18
54816;BME280;40715;55.752;37.884;2023-03-25T09:22:23;97423.09;;;31.85;29.44
54816;BME280;40715;55.752;37.884;2023-03-25T09:24:50;97425.00;;;31.84;29.45
54816;BME280;40715;55.752;37.884;2023-03-25T09:27:17;97429.63;;;31.84;29.13
54816;BME280;40715;55.752;37.884;2023-03-25T09:29:44;97416.09;;;31.77;29.14
54816;BME280;40715;55.752;37.884;2023-03-25T09:32:11;97422.22;;;31.73;29.02
54816;BME280;40715;55.752;37.884;2023-03-25T09:34:39;97430.91;;;31.81;28.93
54816;BME280;40715;55.752;37.884;2023-03-25T09:37:06;97427.97;;;31.83;29.30
54816;BME280;40715;55.752;37.884;2023-03-25T09:39:33;97423.78;;;31.80;29.00
54816;BME280;40715;55.752;37.884;2023-03-25T09:45:04;97431.81;;;31.94;28.91
54816;BME280;40715;55.752;37.884;2023-03-25T09:47:38;97441.81;;;31.81;29.00
54816;BME280;40715;55.752;37.884;2023-03-25T09:50:11;97415.69;;;31.74;29.21
54816;BME280;40715;55.752;37.884;2023-03-25T09:52:53;97443.84;;;31.86;28.73
54816;BME280;40715;55.752;37.884;2023-03-25T09:55:26;97460.84;;;31.81;28.95
54816;BME280;40715;55.752;37.884;2023-03-25T09:58:01;97456.22;;;31.82;28.66
54816;BME280;40715;55.752;37.884;2023-03-25T10:00:28;97461.31;;;31.78;28.58
54816;BME280;40715;55.752;37.884;2023-03-25T10:08:30;97460.78;;;31.88;28.40
54816;BME280;40715;55.752;37.884;2023-03-25T10:11:17;97448.78;;;31.96;28.68
54816;BME280;40715;55.752;37.884;2023-03-25T10:19:23;97454.91;;;31.91;28.45
54816;BME280;40715;55.752;37.884;2023-03-25T10:21:57;97455.31;;;31.88;28.02
54816;BME280;40715;55.752;37.884;2023-03-25T10:24:31;97459.94;;;31.88;28.02
54816;BME280;40715;55.752;37.884;2023-03-25T10:27:06;97453.47;;;31.89;28.12
54816;BME280;40715;55.752;37.884;2023-03-25T10:29:46;97453.47;;;31.89;28.31
54816;BME280;40715;55.752;37.884;2023-03-25T10:32:40;97454.91;;;31.91;28.17
54816;BME280;40715;55.752;37.884;2023-03-25T10:35:10;97465.78;;;31.91;27.77
54816;BME280;40715;55.752;37.884;2023-03-25T10:37:39;97468.75;;;31.90;27.54
54816;BME280;40715;55.752;37.884;2023-03-25T10:45:48;97464.50;;;31.94;27.48
54816;BME280;40715;55.752;37.884;2023-03-25T10:48:26;97471.84;;;31.93;27.58
54816;BME280;40715;55.752;37.884;2023-03-25T10:51:04;97466.06;;;32.64;27.00
54816;BME280;40715;55.752;37.884;2023-03-25T10:53:34;97460.03;;;31.99;27.59
54816;BME280;40715;55.752;37.884;2023-03-25T10:58:39;97452.00;;;31.86;27.56
54816;BME280;40715;55.752;37.884;2023-03-25T11:01:15;97456.31;;;31.94;27.64
54816;BME280;40715;55.752;37.884;2023-03-25T11:03:45;97451.34;;;31.91;27.43
54816;BME280;40715;55.752;37.884;2023-03-25T11:06:28;97464.28;;;31.95;27.57
54816;BME280;40715;55.752;37.884;2023-03-25T11:09:24;97457.03;;;32.08;28.00
54816;BME280;40715;55.752;37.884;2023-03-25T11:11:59;97455.03;;;31.96;27.77
54816;BME280;40715;55.752;37.884;2023-03-25T11:14:28;97452.59;;;31.88;27.71
54816;BME280;40715;55.752;37.884;2023-03-25T11:16:59;97461.56;;;31.95;27.46
54816;BME280;40715;55.752;37.884;2023-03-25T11:19:30;97458.00;;;31.95;27.53
54816;BME280;40715;55.752;37.884;2023-03-25T11:22:11;97457.13;;;32.01;27.43
54816;BME280;40715;55.752;37.884;2023-03-25T11:24:44;97459.22;;;31.99;27.39
54816;BME280;40715;55.752;37.884;2023-03-25T11:27:23;97466.69;;;32.04;27.35
54816;BME280;40715;55.752;37.884;2023-03-25T11:29:53;97468.66;;;31.96;27.49
54816;BME280;40715;55.752;37.884;2023-03-25T11:32:42;97463.69;;;32.12;27.85
54816;BME280;40715;55.752;37.884;2023-03-25T11:35:22;97466.94;;;32.02;27.64
54816;BME280;40715;55.752;37.884;2023-03-25T11:37:58;97463.16;;;32.03;28.13
54816;BME280;40715;55.752;37.884;2023-03-25T11:40:27;97462.56;;;32.01;28.28
54816;BME280;40715;55.752;37.884;2023-03-25T11:42:57;97445.22;;;31.95;28.34
54816;BME280;40715;55.752;37.884;2023-03-25T11:45:36;97447.41;;;32.05;28.31
54816;BME280;40715;55.752;37.884;2023-03-25T11:48:23;97441.25;;;32.16;27.76
54816;BME280;40715;55.752;37.884;2023-03-25T11:51:00;97448.03;;;32.07;27.67
54816;BME280;40715;55.752;37.884;2023-03-25T11:53:30;97445.75;;;32.04;28.54
54816;BME280;40715;55.752;37.884;2023-03-25T11:56:06;97448.09;;;32.00;28.60
54816;BME280;40715;55.752;37.884;2023-03-25T11:58:37;97448.72;;;32.03;28.08
54816;BME280;40715;55.752;37.884;2023-03-25T12:01:20;97461.41;;;32.09;28.10
54816;BME280;40715;55.752;37.884;2023-03-25T12:03:48;97463.38;;;32.01;28.35
54816;BME280;40715;55.752;37.884;2023-03-25T12:06:18;97469.50;;;31.97;28.85
54816;BME280;40715;55.752;37.884;2023-03-25T12:08:56;97477.00;;;32.01;28.85
54816;BME280;40715;55.752;37.884;2023-03-25T12:23:00;97477.34;;;31.87;30.17
54816;BME280;40715;55.752;37.884;2023-03-25T12:42:33;97479.19;;;31.93;30.47
54816;BME280;40715;55.752;37.884;2023-03-25T12:51:35;97461.44;;;31.83;30.76
54816;BME280;40715;55.752;37.884;2023-03-25T12:59:20;97470.16;;;31.92;29.94
54816;BME280;40715;55.752;37.884;2023-03-25T13:07:28;97460.72;;;32.20;29.59
54816;BME280;40715;55.752;37.884;2023-03-25T13:10:13;97466.06;;;32.08;30.18
54816;BME280;40715;55.752;37.884;2023-03-25T13:12:48;97462.75;;;31.99;29.67
54816;BME280;40715;55.752;37.884;2023-03-25T13:15:20;97468.00;;;32.01;29.64
54816;BME280;40715;55.752;37.884;2023-03-25T13:18:13;97463.50;;;32.13;29.57
54816;BME280;40715;55.752;37.884;2023-03-25T13:20:44;97475.50;;;32.06;29.56
54816;BME280;40715;55.752;37.884;2023-03-25T13:23:19;97466.97;;;32.76;28.34
54816;BME280;40715;55.752;37.884;2023-03-25T13:25:50;97474.59;;;32.12;28.90
54816;BME280;40715;55.752;37.884;2023-03-25T13:28:22;97473.00;;;32.04;28.94
54816;BME280;40715;55.752;37.884;2023-03-25T13:31:01;97455.16;;;32.08;29.11
54816;BME280;40715;55.752;37.884;2023-03-25T13:33:38;97450.13;;;32.05;28.60
54816;BME280;40715;55.752;37.884;2023-03-25T13:36:27;97464.22;;;32.02;28.90
54816;BME280;40715;55.752;37.884;2023-03-25T13:39:02;97457.94;;;32.01;28.43
54816;BME280;40715;55.752;37.884;2023-03-25T13:42:06;97455.03;;;32.22;28.57
54816;BME280;40715;55.752;37.884;2023-03-25T13:44:39;97455.00;;;32.03;28.26
54816;BME280;40715;55.752;37.884;2023-03-25T13:47:19;97459.38;;;32.04;28.73
54816;BME280;40715;55.752;37.884;2023-03-25T13:50:13;97463.38;;;32.01;28.56
54816;BME280;40715;55.752;37.884;2023-03-25T13:52:46;97466.34;;;32.00;28.63
54816;BME280;40715;55.752;37.884;2023-03-25T13:55:18;97467.84;;;31.96;28.61
54816;BME280;40715;55.752;37.884;2023-03-25T13:58:08;97469.88;;;32.00;28.65
54816;BME280;40715;55.752;37.884;2023-03-25T14:03:45;97472.00;;;31.98;28.40
54816;BME280;40715;55.752;37.884;2023-03-25T14:11:45;97475.50;;;32.06;28.24
54816;BME280;40715;55.752;37.884;2023-03-25T14:14:17;97464.94;;;31.91;28.27
54816;BME280;40715;55.752;37.884;2023-03-25T14:16:53;97466.03;;;31.90;28.65
54816;BME280;40715;55.752;37.884;2023-03-25T14:19:43;97450.97;;;32.06;28.17
54816;BME280;40715;55.752;37.884;2023-03-25T14:22:20;97480.00;;;31.93;28.57
54816;BME280;40715;55.752;37.884;2023-03-25T14:24:49;97470.63;;;31.89;28.33
54816;BME280;40715;55.752;37.884;2023-03-25T14:27:22;97474.19;;;31.90;28.57
54816;BME280;40715;55.752;37.884;2023-03-25T14:30:06;97481.47;;;31.96;28.33
54816;BME280;40715;55.752;37.884;2023-03-25T14:32:43;97476.47;;;31.93;28.18
54816;BME280;40715;55.752;37.884;2023-03-25T14:48:33;97487.13;;;31.94;28.64
54816;BME280;40715;55.752;37.884;2023-03-25T14:59:35;97487.91;;;32.01;28.80
54816;BME280;40715;55.752;37.884;2023-03-25T15:02:20;97497.19;;;32.12;28.33
54816;BME280;40715;55.752;37.884;2023-03-25T15:05:03;97498.94;;;32.07;28.76
54816;BME280;40715;55.752;37.884;2023-03-25T15:07:46;97492.88;;;32.05;28.39
54816;BME280;40715;55.752;37.884;2023-03-25T15:10:24;97504.38;;;32.07;28.52
54816;BME280;40715;55.752;37.884;2023-03-25T15:12:55;97509.22;;;32.05;28.31
54816;BME280;40715;55.752;37.884;2023-03-25T15:15:29;97496.44;;;32.05;28.26
54816;BME280;40715;55.752;37.884;2023-03-25T15:17:58;97502.72;;;32.06;28.52
54816;BME280;40715;55.752;37.884;2023-03-25T15:20:29;97505.47;;;32.06;28.58
54816;BME280;40715;55.752;37.884;2023-03-25T15:25:49;97497.06;;;32.07;28.31
54816;BME280;40715;55.752;37.884;2023-03-25T15:31:36;97511.84;;;32.18;28.31
54816;BME280;40715;55.752;37.884;2023-03-25T15:34:23;97511.28;;;32.09;28.18
54816;BME280;40715;55.752;37.884;2023-03-25T15:37:03;97512.53;;;32.13;27.76
54816;BME280;40715;55.752;37.884;2023-03-25T15:39:53;97516.25;;;32.12;28.13
54816;BME280;40715;55.752;37.884;2023-03-25T15:42:36;97513.16;;;32.15;27.95
54816;BME280;40715;55.752;37.884;2023-03-25T15:56:24;97537.72;;;32.90;26.46